createdAt,value
2019-01-18T00:02:32.085Z,100856.28
2019-01-18T00:05:13.828Z,100857.94
2019-01-18T00:07:47.344Z,100863.52
2019-01-18T00:10:20.442Z,100869.80
2019-01-18T00:13:03.061Z,100878.23
2019-01-18T00:15:45.463Z,100883.52
2019-01-18T00:18:18.970Z,100889.78
2019-01-18T00:20:52.635Z,100889.60
2019-01-18T00:23:26.786Z,100899.38
2019-01-18T00:26:09.593Z,100903.84
2019-01-18T00:28:51.898Z,100907.45
2019-01-18T00:31:25.454Z,100914.36
2019-01-18T00:33:58.615Z,100922.95
2019-01-18T00:36:33.751Z,100932.85
2019-01-18T00:39:17.570Z,100932.23
2019-01-18T00:41:50.630Z,100942.78
2019-01-18T00:44:23.846Z,100942.78
2019-01-18T00:46:57.902Z,100950.08
2019-01-18T00:49:32.267Z,100958.00
2019-01-18T00:52:11.599Z,100959.95
2019-01-18T00:54:53.940Z,100970.72
2019-01-18T00:57:27.538Z,100968.86
2019-01-18T01:00:02.987Z,100973.17
2019-01-18T01:02:36.753Z,100983.75
2019-01-18T01:05:10.837Z,100992.66
2019-01-18T01:07:53.595Z,100995.45
2019-01-18T01:10:27.756Z,100999.20
2019-01-18T01:13:10.191Z,101007.77
2019-01-18T01:15:55.298Z,101007.13
2019-01-18T01:18:28.473Z,101022.61
2019-01-18T01:21:02.687Z,101027.88
2019-01-18T01:23:42.120Z,101037.41
2019-01-18T01:26:16.302Z,101037.94
2019-01-18T01:28:50.865Z,101042.22
2019-01-18T01:31:26.173Z,101042.22
2019-01-18T01:34:00.083Z,101055.88
2019-01-18T01:36:33.534Z,101059.30
2019-01-18T01:39:10.795Z,101057.59
2019-01-18T01:41:44.290Z,101063.83
2019-01-18T01:44:17.781Z,101067.59
2019-01-18T01:46:50.955Z,101068.39
2019-01-18T01:49:23.774Z,101078.86
2019-01-18T01:51:58.300Z,101077.63
2019-01-18T01:54:33.989Z,101080.27
2019-01-18T01:57:09.280Z,101089.86
2019-01-18T01:59:49.670Z,101096.12
2019-01-18T02:02:20.617Z,101103.23
2019-01-18T02:04:54.692Z,101109.02
2019-01-18T02:07:27.854Z,101114.58
2019-01-18T02:10:01.370Z,101121.19
2019-01-18T02:12:34.478Z,101122.41
2019-01-18T02:15:22.264Z,101115.65
2019-01-18T02:17:55.520Z,101132.69
2019-01-18T02:20:38.314Z,101131.09
2019-01-18T02:23:22.238Z,101145.20
2019-01-18T02:25:58.973Z,101148.27
2019-01-18T02:28:32.226Z,101151.45
2019-01-18T02:31:05.447Z,101154.91
2019-01-18T02:33:40.095Z,101164.93
2019-01-18T02:36:23.743Z,101164.66
2019-01-18T02:39:08.821Z,101167.57
2019-01-18T02:41:42.402Z,101166.88
2019-01-18T02:44:16.253Z,101177.36
2019-01-18T02:46:50.447Z,101183.69
2019-01-18T02:49:27.328Z,101184.85
2019-01-18T02:52:09.860Z,101189.51
2019-01-18T02:54:43.053Z,101190.37
2019-01-18T02:57:17.493Z,101193.51
2019-01-18T03:00:04.872Z,101199.87
2019-01-18T03:02:36.106Z,101199.36
2019-01-18T03:05:12.289Z,101208.84
2019-01-18T03:07:55.273Z,101201.73
2019-01-18T03:10:32.250Z,101207.20
2019-01-18T03:13:18.773Z,101220.21
2019-01-18T03:16:01.179Z,101226.02
2019-01-18T03:18:47.791Z,101231.00
2019-01-18T03:21:21.692Z,101227.96
2019-01-18T03:23:56.152Z,101235.20
2019-01-18T03:26:29.769Z,101239.22
2019-01-18T03:29:04.624Z,101239.17
2019-01-18T03:31:47.681Z,101243.37
2019-01-18T03:34:30.159Z,101244.64
2019-01-18T03:37:12.743Z,101242.93
2019-01-18T03:39:55.134Z,101247.66
2019-01-18T03:42:29.070Z,101246.84
2019-01-18T03:45:02.834Z,101242.95
2019-01-18T03:47:45.226Z,101248.67
2019-01-18T03:50:24.060Z,101259.75
2019-01-18T03:52:57.883Z,101251.98
2019-01-18T03:55:42.405Z,101259.58
2019-01-18T03:58:24.696Z,101258.88
2019-01-18T04:00:57.977Z,101267.05
2019-01-18T04:03:31.498Z,101274.34
2019-01-18T04:06:06.369Z,101282.83
2019-01-18T04:08:39.853Z,101287.05
2019-01-18T04:11:11.349Z,101293.53
2019-01-18T04:13:55.184Z,101295.88
2019-01-18T04:16:38.177Z,101302.77
2019-01-18T04:19:12.915Z,101306.31
2019-01-18T04:21:48.027Z,101311.65
2019-01-18T04:24:21.501Z,101320.27
2019-01-18T04:27:01.001Z,101330.97
2019-01-18T04:29:35.413Z,101336.09
2019-01-18T04:32:09.023Z,101339.20
2019-01-18T04:34:42.258Z,101340.67
2019-01-18T04:37:18.205Z,101351.78
2019-01-18T04:39:54.135Z,101346.80
2019-01-18T04:42:28.723Z,101347.27
2019-01-18T04:45:13.275Z,101350.31
2019-01-18T04:47:55.845Z,101347.67
2019-01-18T04:50:29.555Z,101351.22
2019-01-18T04:53:12.202Z,101348.45
2019-01-18T04:55:57.984Z,101349.91
2019-01-18T04:58:34.529Z,101356.38
2019-01-18T05:01:08.191Z,101361.56
2019-01-18T05:03:45.467Z,101365.80
2019-01-18T05:06:29.085Z,101362.13
2019-01-18T05:09:11.219Z,101371.06
2019-01-18T05:11:49.546Z,101372.60
2019-01-18T05:14:23.605Z,101381.61
2019-01-18T05:16:57.417Z,101390.23
2019-01-18T05:19:39.655Z,101387.66
2019-01-18T05:22:12.771Z,101401.53
2019-01-18T05:24:49.557Z,101405.13
2019-01-18T05:27:29.963Z,101404.38
2019-01-18T05:30:03.200Z,101411.19
2019-01-18T05:32:36.301Z,101414.43
2019-01-18T05:35:18.800Z,101413.26
2019-01-18T05:38:01.890Z,101414.93
2019-01-18T05:40:44.101Z,101410.41
2019-01-18T05:43:16.639Z,101424.02
2019-01-18T05:46:00.330Z,101421.27
2019-01-18T05:48:33.995Z,101428.33
2019-01-18T05:51:08.133Z,101432.35
2019-01-18T05:53:51.116Z,101433.81
2019-01-18T05:56:24.228Z,101439.73
2019-01-18T05:59:13.355Z,101438.13
2019-01-18T06:01:46.813Z,101445.33
2019-01-18T06:04:19.927Z,101456.02
2019-01-18T06:07:05.466Z,101450.81
2019-01-18T06:09:38.771Z,101450.09
2019-01-18T06:12:11.860Z,101453.09
2019-01-18T06:14:45.018Z,101456.97
2019-01-18T06:17:29.649Z,101456.66
2019-01-18T06:20:13.569Z,101462.17
2019-01-18T06:22:47.408Z,101458.89
2019-01-18T06:25:21.191Z,101459.34
2019-01-18T06:27:55.176Z,101468.77
2019-01-18T06:30:38.024Z,101465.69
2019-01-18T06:33:11.957Z,101467.92
2019-01-18T06:35:55.195Z,101468.25
2019-01-18T06:38:38.567Z,101469.36
2019-01-18T06:41:23.733Z,101469.12
2019-01-18T06:43:57.577Z,101473.08
2019-01-18T06:46:40.336Z,101468.72
2019-01-18T06:49:25.820Z,101474.40
2019-01-18T06:51:59.105Z,101476.54
2019-01-18T06:54:32.243Z,101479.61
2019-01-18T06:57:14.125Z,101481.59
2019-01-18T06:59:47.897Z,101485.47
2019-01-18T07:02:22.496Z,101499.66
2019-01-18T07:04:56.036Z,101495.84
2019-01-18T07:07:29.739Z,101501.87
2019-01-18T07:10:03.153Z,101508.03
2019-01-18T07:12:36.645Z,101501.22
2019-01-18T07:15:11.179Z,101502.52
2019-01-18T07:17:45.398Z,101506.25
2019-01-18T07:20:19.977Z,101509.98
2019-01-18T07:22:53.095Z,101519.29
2019-01-18T07:25:30.858Z,101521.48
2019-01-18T07:28:04.330Z,101518.27
2019-01-18T07:30:48.115Z,101519.73
2019-01-18T07:33:21.364Z,101522.97
2019-01-18T07:35:54.728Z,101520.11
2019-01-18T07:38:27.884Z,101525.96
2019-01-18T07:41:11.861Z,101521.81
2019-01-18T07:43:53.908Z,101521.86
2019-01-18T07:46:27.034Z,101531.25
2019-01-18T07:49:00.954Z,101531.23
2019-01-18T07:51:34.087Z,101532.93
2019-01-18T07:54:07.707Z,101533.73
2019-01-18T07:56:39.720Z,101538.25
2019-01-18T07:59:21.611Z,101537.30
2019-01-18T08:01:54.728Z,101543.56
2019-01-18T08:04:28.888Z,101552.98
2019-01-18T08:07:02.048Z,101548.45
2019-01-18T08:09:35.293Z,101552.23
2019-01-18T08:12:20.807Z,101556.72
2019-01-18T08:15:03.869Z,101568.87
2019-01-18T08:17:48.777Z,101562.42
2019-01-18T08:20:31.996Z,101571.05
2019-01-18T08:23:14.175Z,101570.41
2019-01-18T08:25:45.643Z,101575.60
2019-01-18T08:28:19.189Z,101581.09
2019-01-18T08:30:52.632Z,101574.73
2019-01-18T08:33:26.168Z,101582.28
2019-01-18T08:35:59.563Z,101591.81
2019-01-18T08:38:41.848Z,101590.88
2019-01-18T08:41:15.033Z,101592.48
2019-01-18T08:43:48.110Z,101594.31
2019-01-18T08:46:22.911Z,101593.78
2019-01-18T08:49:05.313Z,101600.98
2019-01-18T08:51:38.438Z,101600.98
2019-01-18T08:54:12.144Z,101599.63
2019-01-18T08:56:45.730Z,101601.09
2019-01-18T08:59:18.845Z,101606.45
2019-01-18T09:02:01.934Z,101599.41
2019-01-18T09:04:35.031Z,101605.38
2019-01-18T09:07:08.158Z,101603.77
2019-01-18T09:09:50.175Z,101608.26
2019-01-18T09:12:23.329Z,101607.33
2019-01-18T09:14:56.425Z,101611.86
2019-01-18T09:17:43.122Z,101608.68
2019-01-18T09:20:27.276Z,101610.13
2019-01-18T09:23:00.937Z,101621.66
2019-01-18T09:25:43.588Z,101623.22
2019-01-18T09:28:25.991Z,101627.10
2019-01-18T09:30:59.108Z,101632.79
2019-01-18T09:33:32.885Z,101640.67
2019-01-18T09:36:07.616Z,101644.77
2019-01-18T09:38:52.120Z,101641.23
2019-01-18T09:41:25.238Z,101650.80
2019-01-18T09:43:58.318Z,101646.42
2019-01-18T09:46:41.391Z,101649.34
2019-01-18T09:49:24.395Z,101650.58
2019-01-18T09:52:06.530Z,101655.60
2019-01-18T09:54:39.636Z,101656.77
2019-01-18T09:57:12.725Z,101661.98
2019-01-18T09:59:55.041Z,101657.45
2019-01-18T10:02:28.152Z,101663.00
2019-01-18T10:05:01.890Z,101659.39
2019-01-18T10:07:35.917Z,101662.80
2019-01-18T10:10:12.180Z,101667.64
2019-01-18T10:12:45.788Z,101669.72
2019-01-18T10:15:21.273Z,101672.22
2019-01-18T10:18:00.624Z,101678.47
2019-01-18T10:20:29.446Z,101676.42
2019-01-18T10:23:12.338Z,101676.70
2019-01-18T10:25:45.865Z,101684.05
2019-01-18T10:28:20.760Z,101682.52
2019-01-18T10:30:56.826Z,101681.00
2019-01-18T10:33:40.950Z,101685.27
2019-01-18T10:36:14.070Z,101685.84
2019-01-18T10:38:56.518Z,101679.93
2019-01-18T10:41:39.457Z,101682.20
2019-01-18T10:44:12.926Z,101683.25
2019-01-18T10:46:46.094Z,101686.89
2019-01-18T10:49:19.297Z,101687.81
2019-01-18T10:52:01.443Z,101678.52
2019-01-18T10:54:35.018Z,101682.49
2019-01-18T10:57:08.079Z,101679.27
2019-01-18T10:59:51.217Z,101674.75
2019-01-18T11:02:24.334Z,101678.73
2019-01-18T11:04:57.872Z,101679.31
2019-01-18T11:07:31.456Z,101674.91
2019-01-18T11:10:06.041Z,101676.50
2019-01-18T11:12:40.282Z,101685.45
2019-01-18T11:15:14.628Z,101679.73
2019-01-18T11:17:57.534Z,101683.80
2019-01-18T11:20:45.319Z,101689.14
2019-01-18T11:23:18.926Z,101689.53
2019-01-18T11:25:52.353Z,101687.86
2019-01-18T11:28:25.499Z,101688.24
2019-01-18T11:31:07.478Z,101687.02
2019-01-18T11:33:50.695Z,101689.52
2019-01-18T11:36:23.827Z,101689.87
2019-01-18T11:38:56.881Z,101685.80
2019-01-18T11:41:39.138Z,101685.17
2019-01-18T11:44:12.672Z,101682.08
2019-01-18T11:46:46.049Z,101681.07
2019-01-18T11:49:29.165Z,101676.46
2019-01-18T11:52:02.287Z,101679.11
2019-01-18T11:54:35.341Z,101680.94
2019-01-18T11:57:17.159Z,101675.23
2019-01-18T12:00:01.723Z,101680.73
2019-01-18T12:02:46.251Z,101675.18
2019-01-18T12:05:28.700Z,101686.09
2019-01-18T12:08:02.158Z,101688.37
2019-01-18T12:10:35.425Z,101687.30
2019-01-18T12:13:09.011Z,101689.95
2019-01-18T12:15:42.903Z,101691.55
2019-01-18T12:18:16.689Z,101692.20
2019-01-18T12:20:49.992Z,101690.44
2019-01-18T12:23:23.613Z,101687.30
2019-01-18T12:25:55.197Z,101688.00
2019-01-18T12:28:37.904Z,101687.55
2019-01-18T12:31:21.721Z,101696.06
2019-01-18T12:34:04.078Z,101688.73
2019-01-18T12:36:37.195Z,101693.04
2019-01-18T12:39:11.499Z,101697.95
2019-01-18T12:41:44.974Z,101698.30
2019-01-18T12:44:18.412Z,101702.94
2019-01-18T12:46:53.361Z,101701.32
2019-01-18T12:49:26.872Z,101700.31
2019-01-18T12:52:00.479Z,101699.99
2019-01-18T12:54:36.977Z,101699.30
2019-01-18T12:57:19.446Z,101700.41
2019-01-18T13:00:02.125Z,101697.44
2019-01-18T13:02:45.145Z,101689.50
2019-01-18T13:05:21.966Z,101692.88
2019-01-18T13:08:04.310Z,101691.71
2019-01-18T13:10:38.083Z,101689.01
2019-01-18T13:13:11.528Z,101686.41
2019-01-18T13:15:52.876Z,101689.06
2019-01-18T13:18:27.164Z,101686.51
2019-01-18T13:21:09.570Z,101684.61
2019-01-18T13:23:43.009Z,101682.61
2019-01-18T13:26:16.199Z,101677.97
2019-01-18T13:28:50.029Z,101683.64
2019-01-18T13:31:23.125Z,101682.75
2019-01-18T13:33:57.972Z,101686.86
2019-01-18T13:36:41.111Z,101686.02
2019-01-18T13:39:12.931Z,101689.84
2019-01-18T13:41:46.361Z,101682.55
2019-01-18T13:44:19.939Z,101680.87
2019-01-18T13:46:53.422Z,101677.40
2019-01-18T13:49:27.530Z,101683.48
2019-01-18T13:52:01.071Z,101687.93
2019-01-18T13:54:44.536Z,101687.81
2019-01-18T13:57:17.830Z,101695.96
2019-01-18T13:59:50.887Z,101697.94
2019-01-18T14:02:24.809Z,101696.42
2019-01-18T14:05:07.889Z,101697.59
2019-01-18T14:07:41.040Z,101697.12
2019-01-18T14:10:28.210Z,101707.29
2019-01-18T14:13:01.490Z,101712.91
2019-01-18T14:15:37.147Z,101709.08
2019-01-18T14:18:19.403Z,101706.23
2019-01-18T14:20:54.162Z,101708.47
2019-01-18T14:23:27.605Z,101708.08
2019-01-18T14:26:10.265Z,101713.66
2019-01-18T14:28:53.585Z,101714.44
2019-01-18T14:31:26.756Z,101713.22
2019-01-18T14:33:59.817Z,101718.82
2019-01-18T14:36:33.045Z,101723.39
2019-01-18T14:39:15.514Z,101726.42
2019-01-18T14:41:50.019Z,101726.44
2019-01-18T14:44:24.065Z,101729.05
2019-01-18T14:46:57.339Z,101732.13
2019-01-18T14:49:32.542Z,101735.61
2019-01-18T14:52:06.150Z,101734.59
2019-01-18T14:54:39.642Z,101743.47
2019-01-18T14:57:12.876Z,101737.99
2019-01-18T14:59:47.901Z,101744.45
2019-01-18T15:02:30.356Z,101745.70
2019-01-18T15:05:03.553Z,101749.59
2019-01-18T15:07:38.090Z,101750.28
2019-01-18T15:10:21.700Z,101751.19
2019-01-18T15:13:13.240Z,101755.63
2019-01-18T15:15:46.819Z,101750.28
2019-01-18T15:18:21.288Z,101747.82
2019-01-18T15:21:09.997Z,101747.73
2019-01-18T15:23:54.556Z,101739.42
2019-01-18T15:26:37.172Z,101747.28
2019-01-18T15:29:12.845Z,101746.57
2019-01-18T15:31:46.959Z,101747.18
2019-01-18T15:34:21.599Z,101747.09
2019-01-18T15:37:03.327Z,101752.48
2019-01-18T15:39:36.747Z,101751.36
2019-01-18T15:42:10.165Z,101754.27
2019-01-18T15:44:44.124Z,101756.69
2019-01-18T15:47:28.132Z,101755.02
2019-01-18T15:50:20.209Z,101756.47
2019-01-18T15:52:57.348Z,101762.33
2019-01-18T15:55:31.256Z,101753.64
2019-01-18T15:58:13.894Z,101752.63
2019-01-18T16:00:47.152Z,101759.22
2019-01-18T16:03:21.178Z,101760.44
2019-01-18T16:05:55.705Z,101768.39
2019-01-18T16:08:29.659Z,101766.74
2019-01-18T16:11:03.506Z,101769.48
2019-01-18T16:13:38.949Z,101771.77
2019-01-18T16:16:25.435Z,101763.35
2019-01-18T16:18:59.177Z,101763.20
2019-01-18T16:21:32.460Z,101771.58
2019-01-18T16:24:14.880Z,101770.83
2019-01-18T16:26:48.367Z,101775.91
2019-01-18T16:29:21.450Z,101775.52
2019-01-18T16:32:03.202Z,101774.95
2019-01-18T16:34:36.474Z,101775.73
2019-01-18T16:37:09.534Z,101777.56
2019-01-18T16:39:55.283Z,101779.44
2019-01-18T16:42:30.692Z,101777.70
2019-01-18T16:45:04.365Z,101774.81
2019-01-18T16:47:37.603Z,101774.95
2019-01-18T16:50:12.347Z,101771.19
2019-01-18T16:52:45.859Z,101774.94
2019-01-18T16:55:28.797Z,101777.88
2019-01-18T16:58:11.978Z,101779.44
2019-01-18T17:00:56.560Z,101772.63
2019-01-18T17:03:30.529Z,101776.98
2019-01-18T17:06:04.209Z,101773.93
2019-01-18T17:08:37.675Z,101771.78
2019-01-18T17:11:11.188Z,101773.41
2019-01-18T17:13:45.415Z,101770.63
2019-01-18T17:16:18.676Z,101771.48
2019-01-18T17:18:52.284Z,101774.48
2019-01-18T17:21:27.494Z,101772.68
2019-01-18T17:24:11.114Z,101774.14
2019-01-18T17:26:44.919Z,101777.66
2019-01-18T17:29:27.838Z,101781.73
2019-01-18T17:32:04.860Z,101786.63
2019-01-18T17:34:38.211Z,101779.08
2019-01-18T17:37:21.139Z,101781.58
2019-01-18T17:40:19.818Z,101784.58
2019-01-18T17:43:30.186Z,101787.19
2019-01-18T17:46:35.649Z,101787.66
2019-01-18T17:49:57.744Z,101791.62
2019-01-18T17:53:17.983Z,101793.55
2019-01-18T17:56:36.814Z,101794.22
2019-01-18T18:00:13.195Z,101790.25
2019-01-18T18:03:37.768Z,101793.81
2019-01-18T18:06:51.360Z,101803.89
2019-01-18T18:09:36.479Z,101805.69
2019-01-18T18:12:26.624Z,101807.92
2019-01-18T18:15:56.845Z,101805.28
2019-01-18T18:19:14.429Z,101812.75
2019-01-18T18:22:12.470Z,101815.25
2019-01-18T18:25:13.910Z,101821.81
2019-01-18T18:28:40.076Z,101816.99
2019-01-18T18:31:46.741Z,101817.55
2019-01-18T18:35:06.362Z,101819.33
2019-01-18T18:38:28.299Z,101820.51
2019-01-18T18:41:35.537Z,101821.22
2019-01-18T18:44:24.596Z,101825.14
2019-01-18T18:47:25.219Z,101829.20
2019-01-18T18:50:32.100Z,101829.61
2019-01-18T18:53:22.306Z,101830.88
2019-01-18T18:56:25.303Z,101835.77
2019-01-18T18:59:26.509Z,101836.52
2019-01-18T19:02:45.900Z,101838.70
2019-01-18T19:06:11.946Z,101835.82
2019-01-18T19:09:24.889Z,101832.20
2019-01-18T19:12:47.661Z,101834.44
2019-01-18T19:15:42.589Z,101837.20
2019-01-18T19:18:41.327Z,101835.34
2019-01-18T19:22:08.026Z,101837.64
2019-01-18T19:25:01.966Z,101832.84
2019-01-18T19:28:18.699Z,101834.75
2019-01-18T19:31:31.302Z,101841.91
2019-01-18T19:35:01.119Z,101841.61
2019-01-18T19:38:21.601Z,101843.52
2019-01-18T19:41:10.830Z,101841.95
2019-01-18T19:44:28.142Z,101841.95
2019-01-18T19:47:39.549Z,101847.98
2019-01-18T19:50:50.065Z,101844.27
2019-01-18T19:54:02.557Z,101850.41
2019-01-18T19:57:18.277Z,101850.37
2019-01-18T20:00:46.036Z,101848.23
2019-01-18T20:03:33.892Z,101849.98
2019-01-18T20:07:06.215Z,101844.91
2019-01-18T20:10:23.949Z,101851.45
2019-01-18T20:13:42.817Z,101861.72
2019-01-18T20:16:58.657Z,101851.23
2019-01-18T20:20:17.679Z,101855.86
2019-01-18T20:23:30.357Z,101846.33
2019-01-18T20:26:40.580Z,101848.19
2019-01-18T20:30:07.359Z,101854.72
2019-01-18T20:33:27.511Z,101857.44
2019-01-18T20:36:50.829Z,101861.76
2019-01-18T20:40:06.679Z,101861.23
2019-01-18T20:43:38.707Z,101866.08
2019-01-18T20:47:05.132Z,101859.11
2019-01-18T20:50:15.895Z,101857.44
2019-01-18T20:53:38.884Z,101865.69
2019-01-18T20:57:02.277Z,101867.91
2019-01-18T20:59:47.238Z,101867.63
2019-01-18T21:03:17.733Z,101870.91
2019-01-18T21:05:57.356Z,101875.39
2019-01-18T21:09:26.015Z,101878.13
2019-01-18T21:12:18.997Z,101885.91
2019-01-18T21:15:09.877Z,101882.66
2019-01-18T21:18:13.549Z,101872.25
2019-01-18T21:21:31.279Z,101882.96
2019-01-18T21:25:01.153Z,101879.52
2019-01-18T21:28:19.978Z,101882.73
2019-01-18T21:31:24.984Z,101884.41
2019-01-18T21:34:15.270Z,101889.78
2019-01-18T21:37:18.070Z,101892.06
2019-01-18T21:40:09.924Z,101891.08
2019-01-18T21:42:59.448Z,101892.05
2019-01-18T21:46:08.556Z,101894.16
2019-01-18T21:49:12.423Z,101890.13
2019-01-18T21:52:29.461Z,101893.66
2019-01-18T21:55:34.482Z,101891.52
2019-01-18T21:58:32.822Z,101896.30
2019-01-18T22:02:02.320Z,101896.16
2019-01-18T22:04:54.002Z,101893.19
2019-01-18T22:07:56.485Z,101894.20
2019-01-18T22:11:07.950Z,101895.59
2019-01-18T22:14:11.401Z,101896.03
2019-01-18T22:17:27.119Z,101889.07
2019-01-18T22:20:26.887Z,101895.88
2019-01-18T22:23:40.640Z,101896.12
2019-01-18T22:26:59.782Z,101904.68
2019-01-18T22:30:04.987Z,101901.41
2019-01-18T22:33:25.062Z,101900.19
2019-01-18T22:36:36.038Z,101903.72
2019-01-18T22:39:58.352Z,101900.34
2019-01-18T22:43:28.708Z,101906.05
2019-01-18T22:46:37.764Z,101909.66
2019-01-18T22:49:50.954Z,101915.68
2019-01-18T22:52:59.877Z,101916.04
2019-01-18T22:55:50.039Z,101916.55
2019-01-18T22:59:13.976Z,101914.89
2019-01-18T23:02:19.992Z,101920.41
2019-01-18T23:05:32.218Z,101918.45
2019-01-18T23:08:41.758Z,101921.59
2019-01-18T23:11:51.655Z,101911.98
2019-01-18T23:14:50.420Z,101910.61
2019-01-18T23:18:10.143Z,101908.94
2019-01-18T23:21:29.243Z,101914.34
2019-01-18T23:24:52.182Z,101909.34
2019-01-18T23:28:22.104Z,101905.84
2019-01-18T23:31:21.243Z,101917.02
2019-01-18T23:34:19.822Z,101916.33
2019-01-18T23:37:02.058Z,101910.86
2019-01-18T23:40:11.858Z,101912.73
2019-01-18T23:43:34.735Z,101914.78
2019-01-18T23:47:14.015Z,101901.98
2019-01-18T23:50:16.086Z,101905.22
2019-01-18T23:53:16.180Z,101898.75
2019-01-18T23:56:16.785Z,101900.41
2019-01-18T23:59:40.331Z,101897.56
